createdAt,value
2018-08-24T00:01:17.853Z,2.8
2018-08-24T00:04:17.807Z,2.7
2018-08-24T00:07:18.416Z,2.8
2018-08-24T00:10:17.821Z,2.7
2018-08-24T00:13:18.027Z,2.7
2018-08-24T00:16:17.747Z,2.8
2018-08-24T00:19:17.917Z,2.7
2018-08-24T00:25:17.838Z,2.9
2018-08-24T00:28:17.741Z,2.8
2018-08-24T00:31:17.998Z,3
2018-08-24T00:34:18.043Z,2.8
2018-08-24T00:37:17.870Z,2.8
2018-08-24T00:40:17.728Z,2.9
2018-08-24T00:43:17.955Z,2.9
2018-08-24T00:46:17.972Z,3.4
2018-08-24T00:49:18.283Z,3
2018-08-24T00:55:18.002Z,3.1
2018-08-24T00:58:18.174Z,3
2018-08-24T01:01:17.848Z,2.9
2018-08-24T01:04:17.932Z,2.9
2018-08-24T01:07:17.677Z,2.7
2018-08-24T01:10:17.839Z,2.6
2018-08-24T01:13:17.882Z,2.6
2018-08-24T01:16:17.809Z,2.7
2018-08-24T01:19:17.865Z,2.6
2018-08-24T01:25:18.003Z,2.6
2018-08-24T01:28:18.228Z,2.7
2018-08-24T01:31:17.819Z,2.8
2018-08-24T01:34:18.145Z,2.7
2018-08-24T01:37:17.739Z,2.6
2018-08-24T01:40:17.815Z,2.6
2018-08-24T01:43:17.914Z,2.6
2018-08-24T01:46:18.031Z,2.6
2018-08-24T01:49:17.948Z,2.6
2018-08-24T01:55:17.902Z,2.7
2018-08-24T01:58:17.945Z,2.7
2018-08-24T02:01:18.257Z,2.7
2018-08-24T02:04:17.835Z,2.7
2018-08-24T02:07:18.160Z,2.7
2018-08-24T02:10:17.748Z,2.7
2018-08-24T02:13:18.161Z,2.7
2018-08-24T02:16:17.805Z,2.7
2018-08-24T02:19:17.806Z,2.6
2018-08-24T02:25:17.819Z,2.6
2018-08-24T02:28:17.923Z,2.8
2018-08-24T02:31:19.306Z,2.8
2018-08-24T02:34:18.212Z,2.7
2018-08-24T02:37:17.965Z,2.6
2018-08-24T02:40:17.904Z,2.6
2018-08-24T02:46:18.033Z,2.6
2018-08-24T02:49:17.885Z,2.6
2018-08-24T02:52:17.890Z,2.5
2018-08-24T02:55:17.701Z,2.5
2018-08-24T02:58:17.844Z,2.5
2018-08-24T03:01:17.804Z,2.5
2018-08-24T03:04:17.899Z,2.6
2018-08-24T03:07:17.947Z,2.7
2018-08-24T03:10:17.769Z,2.6
2018-08-24T03:16:18.353Z,2.6
2018-08-24T03:19:17.938Z,2.5
2018-08-24T03:22:17.851Z,2.5
2018-08-24T03:25:17.943Z,2.5
2018-08-24T03:28:17.721Z,2.5
2018-08-24T03:31:17.792Z,2.5
2018-08-24T03:34:17.806Z,2.6
2018-08-24T03:37:17.689Z,2.6
2018-08-24T03:40:17.890Z,2.6
2018-08-24T03:46:17.767Z,2.5
2018-08-24T03:49:17.732Z,2.6
2018-08-24T03:52:17.745Z,2.5
2018-08-24T03:55:17.957Z,2.5
2018-08-24T03:58:17.798Z,2.5
2018-08-24T04:01:17.902Z,2.5
2018-08-24T04:04:17.837Z,2.6
2018-08-24T04:07:17.896Z,2.5
2018-08-24T04:10:17.828Z,2.5
2018-08-24T04:16:17.817Z,2.5
2018-08-24T04:19:18.513Z,2.6
2018-08-24T04:22:17.815Z,2.5
2018-08-24T04:25:17.613Z,2.5
2018-08-24T04:28:17.866Z,2.5
2018-08-24T04:31:17.946Z,2.5
2018-08-24T04:34:17.874Z,2.5
2018-08-24T04:37:17.702Z,2.5
2018-08-24T04:40:19.170Z,2.6
2018-08-24T04:46:17.776Z,2.6
2018-08-24T04:49:17.789Z,2.6
2018-08-24T04:52:17.936Z,2.6
2018-08-24T04:55:17.769Z,2.5
2018-08-24T04:58:18.747Z,2.6
2018-08-24T05:01:17.696Z,2.6
2018-08-24T05:04:17.849Z,2.6
2018-08-24T05:07:17.900Z,2.5
2018-08-24T05:10:17.973Z,2.4
2018-08-24T05:16:17.920Z,2.5
2018-08-24T05:19:17.900Z,2.5
2018-08-24T05:22:17.956Z,2.5
2018-08-24T05:25:17.881Z,2.5
2018-08-24T05:28:17.977Z,2.5
2018-08-24T05:31:17.915Z,2.5
2018-08-24T05:34:18.066Z,2.4
2018-08-24T05:37:18.076Z,2.5
2018-08-24T05:40:17.747Z,2.4
2018-08-24T05:46:17.699Z,2.4
2018-08-24T05:49:17.877Z,2.3
2018-08-24T05:52:17.727Z,2.3
2018-08-24T05:55:17.994Z,2.6
2018-08-24T05:58:17.740Z,2.5
2018-08-24T06:01:17.940Z,2.5
2018-08-24T06:04:17.695Z,2.5
2018-08-24T06:07:18.074Z,2.5
2018-08-24T06:10:17.721Z,2.5
2018-08-24T06:16:18.223Z,2.5
2018-08-24T06:19:17.945Z,2.5
2018-08-24T06:22:17.906Z,2.5
2018-08-24T06:25:17.917Z,2.4
2018-08-24T06:28:17.803Z,2.4
2018-08-24T06:31:17.906Z,2.4
2018-08-24T06:34:17.939Z,2.5
2018-08-24T06:37:17.848Z,2.5
2018-08-24T06:40:18.366Z,2.4
2018-08-24T06:46:17.785Z,2.6
2018-08-24T06:49:17.823Z,2.5
2018-08-24T06:52:17.705Z,2.5
2018-08-24T06:55:17.713Z,2.5
2018-08-24T06:58:17.744Z,2.4
2018-08-24T07:01:18.104Z,2.4
2018-08-24T07:04:17.993Z,2.4
2018-08-24T07:07:17.686Z,2.4
2018-08-24T07:10:17.902Z,2.4
2018-08-24T07:16:17.845Z,2.4
2018-08-24T07:19:17.903Z,2.4
2018-08-24T07:22:17.682Z,2.5
2018-08-24T07:25:19.039Z,2.4
2018-08-24T07:28:18.151Z,2.5
2018-08-24T07:31:18.120Z,2.4
2018-08-24T07:34:17.854Z,2.4
2018-08-24T07:37:17.877Z,2.4
2018-08-24T07:40:17.753Z,5
2018-08-24T07:46:17.903Z,5.1
2018-08-24T07:49:17.824Z,3.8
2018-08-24T07:52:18.034Z,4.4
2018-08-24T07:55:17.825Z,6.2
2018-08-24T07:58:17.629Z,5.3
2018-08-24T08:01:17.888Z,4.6
2018-08-24T08:04:17.825Z,4.8
2018-08-24T08:07:17.786Z,3.8
2018-08-24T08:10:17.849Z,3.7
2018-08-24T08:16:17.669Z,4
2018-08-24T08:19:17.723Z,3.6
2018-08-24T08:22:17.724Z,3.3
2018-08-24T08:25:17.653Z,2.8
2018-08-24T08:28:17.908Z,2.6
2018-08-24T08:31:17.914Z,2.5
2018-08-24T08:34:18.007Z,2.5
2018-08-24T08:37:17.913Z,3.1
2018-08-24T08:40:18.010Z,2.7
2018-08-24T08:46:17.706Z,2.7
2018-08-24T08:49:17.983Z,2.6
2018-08-24T08:52:17.856Z,2.5
2018-08-24T08:55:18.062Z,2.6
2018-08-24T08:58:17.870Z,2.5
2018-08-24T09:01:17.813Z,2.4
2018-08-24T09:04:17.715Z,2.4
2018-08-24T09:07:17.889Z,2.6
2018-08-24T09:10:17.818Z,2.6
2018-08-24T09:16:17.850Z,3
2018-08-24T09:19:17.922Z,2.7
2018-08-24T09:22:17.962Z,2.6
2018-08-24T09:25:18.290Z,2.5
2018-08-24T09:28:17.762Z,2.4
2018-08-24T09:31:17.760Z,2.5
2018-08-24T09:34:17.757Z,2.5
2018-08-24T09:37:17.587Z,2.4
2018-08-24T09:40:17.876Z,2.4
2018-08-24T09:46:17.841Z,2.5
2018-08-24T09:49:17.885Z,2.4
2018-08-24T09:52:18.245Z,2.5
2018-08-24T09:55:17.999Z,2.6
2018-08-24T09:58:17.710Z,2.5
2018-08-24T10:01:17.907Z,2.6
2018-08-24T10:04:17.996Z,2.5
2018-08-24T10:07:18.006Z,2.8
2018-08-24T10:10:17.629Z,2.8
2018-08-24T10:16:17.780Z,2.9
2018-08-24T10:19:18.016Z,2.9
2018-08-24T10:22:17.744Z,2.8
2018-08-24T10:25:18.067Z,2.6
2018-08-24T10:28:17.935Z,7.2
2018-08-24T10:31:17.932Z,9.4
2018-08-24T10:34:17.883Z,12.1
2018-08-24T10:37:17.916Z,12.3
2018-08-24T10:40:17.979Z,12.6
2018-08-24T10:46:18.456Z,12
2018-08-24T10:49:19.175Z,11.6
2018-08-24T10:52:17.737Z,11.7
2018-08-24T10:55:17.719Z,12.2
2018-08-24T10:58:17.737Z,12
2018-08-24T11:01:17.690Z,11.4
2018-08-24T11:04:17.647Z,11.2
2018-08-24T11:07:19.127Z,11.1
2018-08-24T11:10:17.837Z,11
2018-08-24T11:16:17.840Z,10.8
2018-08-24T11:19:17.929Z,10.5
2018-08-24T11:22:18.095Z,10.2
2018-08-24T11:25:18.124Z,10
2018-08-24T11:28:17.866Z,10.5
2018-08-24T11:31:17.836Z,10.4
2018-08-24T11:34:18.032Z,10.2
2018-08-24T11:37:17.869Z,9.9
2018-08-24T11:40:17.541Z,9.9
2018-08-24T11:46:17.777Z,9.7
2018-08-24T11:49:17.763Z,9.5
2018-08-24T11:52:17.917Z,9.6
2018-08-24T11:55:18.100Z,9.6
2018-08-24T11:58:17.687Z,9.6
2018-08-24T12:01:17.966Z,9.7
2018-08-24T12:04:17.836Z,9.5
2018-08-24T12:07:18.000Z,9.6
2018-08-24T12:10:17.893Z,9.3
2018-08-24T12:16:17.813Z,9.3
2018-08-24T12:19:17.660Z,9.4
2018-08-24T12:22:17.694Z,9.7
2018-08-24T12:25:17.604Z,9.7
2018-08-24T12:28:17.851Z,9.6
2018-08-24T12:31:18.182Z,9.5
2018-08-24T12:37:17.876Z,9.3
2018-08-24T12:40:17.956Z,9.2
2018-08-24T12:43:17.932Z,9
2018-08-24T12:46:17.676Z,8.8
2018-08-24T12:49:18.699Z,8.9
2018-08-24T12:52:17.678Z,8.7
2018-08-24T12:55:17.838Z,8.9
2018-08-24T12:58:17.825Z,8.7
2018-08-24T13:01:17.856Z,8.6
2018-08-24T13:07:17.707Z,8.8
2018-08-24T13:10:18.228Z,8.6
2018-08-24T13:13:17.777Z,8.7
2018-08-24T13:16:17.927Z,8.6
2018-08-24T13:19:17.920Z,8.8
2018-08-24T13:22:17.971Z,8.8
2018-08-24T13:25:18.046Z,8.7
2018-08-24T13:28:18.058Z,8.7
2018-08-24T13:31:17.676Z,8.5
2018-08-24T13:37:17.875Z,9
2018-08-24T13:40:17.709Z,8.9
2018-08-24T13:43:17.695Z,8.7
2018-08-24T13:46:17.667Z,10.1
2018-08-24T13:49:17.589Z,10.6
2018-08-24T13:52:17.566Z,10.1
2018-08-24T13:55:17.795Z,9.3
2018-08-24T13:58:17.786Z,8.4
2018-08-24T14:01:18.058Z,7.8
2018-08-24T14:07:17.739Z,7.7
2018-08-24T14:10:17.605Z,7.8
2018-08-24T14:13:18.100Z,8.6
2018-08-24T14:16:17.571Z,8.4
2018-08-24T14:19:18.001Z,7.9
2018-08-24T14:22:17.712Z,7.5
2018-08-24T14:25:17.768Z,7.4
2018-08-24T14:28:17.906Z,7.5
2018-08-24T14:31:17.884Z,7.7
2018-08-24T14:37:18.010Z,7.6
2018-08-24T14:40:18.081Z,7.5
2018-08-24T14:43:17.581Z,7.3
2018-08-24T14:46:17.744Z,7.2
2018-08-24T14:49:17.819Z,7.2
2018-08-24T14:52:17.997Z,7.3
2018-08-24T14:55:17.710Z,6.9
2018-08-24T14:58:17.932Z,6.9
2018-08-24T15:01:17.896Z,7.2
2018-08-24T15:07:17.828Z,7.3
2018-08-24T15:10:18.065Z,7.7
2018-08-24T15:13:17.631Z,7.2
2018-08-24T15:16:17.799Z,7
2018-08-24T15:19:17.924Z,7.1
2018-08-24T15:22:17.902Z,7.4
2018-08-24T15:25:17.776Z,7
2018-08-24T15:28:17.827Z,7.1
2018-08-24T15:31:17.890Z,6.8
2018-08-24T15:37:17.820Z,6.8
2018-08-24T15:40:17.965Z,6.7
2018-08-24T15:43:17.574Z,6.7
2018-08-24T15:46:18.326Z,6.8
2018-08-24T15:49:17.776Z,6.7
2018-08-24T15:52:17.803Z,6.6
2018-08-24T15:55:17.886Z,6.7
2018-08-24T15:58:17.754Z,6.8
2018-08-24T16:01:18.112Z,6.7
2018-08-24T16:07:17.858Z,6.6
2018-08-24T16:10:17.691Z,6.6
2018-08-24T16:13:18.357Z,6.7
2018-08-24T16:16:18.384Z,6.7
2018-08-24T16:19:17.654Z,6.5
2018-08-24T16:22:17.699Z,6.6
2018-08-24T16:25:18.481Z,6.6
2018-08-24T16:28:17.798Z,6.6
2018-08-24T16:31:17.704Z,6.5
2018-08-24T16:37:17.618Z,6.2
2018-08-24T16:40:17.882Z,6.3
2018-08-24T16:43:17.588Z,6.2
2018-08-24T16:46:18.028Z,6.4
2018-08-24T16:49:17.718Z,6.7
2018-08-24T16:52:18.501Z,6.5
2018-08-24T16:55:17.584Z,6.3
2018-08-24T16:58:17.659Z,6.3
2018-08-24T17:01:17.848Z,6.4
2018-08-24T17:07:17.719Z,6.6
2018-08-24T17:10:17.711Z,6.4
2018-08-24T17:13:17.641Z,6.4
2018-08-24T17:16:17.551Z,6.2
2018-08-24T17:19:17.537Z,6.3
2018-08-24T17:22:17.606Z,6.4
2018-08-24T17:25:17.695Z,6.2
2018-08-24T17:28:18.034Z,6.6
2018-08-24T17:31:17.479Z,6.4
2018-08-24T17:37:17.872Z,6.2
2018-08-24T17:40:17.960Z,6.2
2018-08-24T17:43:17.797Z,6
2018-08-24T17:46:17.551Z,6.2
2018-08-24T17:49:17.688Z,6.2
2018-08-24T17:52:17.719Z,6.2
2018-08-24T17:55:17.962Z,6.1
2018-08-24T17:58:19.073Z,6.1
2018-08-24T18:01:17.581Z,6.1
2018-08-24T18:07:18.220Z,6
2018-08-24T18:10:17.776Z,6
2018-08-24T18:13:17.460Z,5.8
2018-08-24T18:16:18.006Z,5.9
2018-08-24T18:19:17.706Z,7.6
2018-08-24T18:22:17.941Z,7.7
2018-08-24T18:25:17.903Z,7.1
2018-08-24T18:28:17.804Z,6.9
2018-08-24T18:31:17.867Z,6.5
2018-08-24T18:37:18.091Z,6.6
2018-08-24T18:40:17.716Z,7
2018-08-24T18:43:17.852Z,6.2
2018-08-24T18:46:17.621Z,7
2018-08-24T18:49:17.582Z,6.5
2018-08-24T18:52:17.663Z,5.9
2018-08-24T18:55:17.531Z,5.9
2018-08-24T18:58:17.780Z,6
2018-08-24T19:01:17.706Z,5.7
2018-08-24T19:07:17.681Z,5.6
2018-08-24T19:10:17.726Z,5.6
2018-08-24T19:13:17.892Z,5.5
2018-08-24T19:16:17.673Z,5.6
2018-08-24T19:19:17.560Z,5.5
2018-08-24T19:22:17.921Z,5.4
2018-08-24T19:28:17.688Z,6.4
2018-08-24T19:31:17.926Z,6.5
2018-08-24T19:34:17.616Z,6.4
2018-08-24T19:37:17.936Z,6.6
2018-08-24T19:40:17.586Z,6
2018-08-24T19:43:17.823Z,5.8
2018-08-24T19:46:17.987Z,5.9
2018-08-24T19:49:18.410Z,5.5
2018-08-24T19:52:17.716Z,5.8
2018-08-24T19:58:18.155Z,6.5
2018-08-24T20:01:17.773Z,5.9
2018-08-24T20:04:17.830Z,6.3
2018-08-24T20:07:17.712Z,5.9
2018-08-24T20:10:17.747Z,6.3
2018-08-24T20:13:17.976Z,7.2
2018-08-24T20:16:17.553Z,6.7
2018-08-24T20:19:17.826Z,6
2018-08-24T20:22:17.548Z,6.4
2018-08-24T20:28:17.777Z,6.1
2018-08-24T20:31:17.820Z,6.1
2018-08-24T20:34:17.745Z,6.3
2018-08-24T20:37:17.701Z,5.6
2018-08-24T20:40:17.543Z,5.5
2018-08-24T20:43:17.847Z,6.3
2018-08-24T20:49:17.924Z,6.4
2018-08-24T20:52:17.676Z,6
2018-08-24T20:55:19.504Z,5.6
2018-08-24T20:58:17.684Z,5.5
2018-08-24T21:01:17.948Z,5.2
2018-08-24T21:04:19.404Z,5.1
2018-08-24T21:10:17.863Z,5
2018-08-24T21:13:17.689Z,4.9
2018-08-24T21:16:17.733Z,5
2018-08-24T21:19:17.693Z,4.8
2018-08-24T21:22:17.736Z,4.8
2018-08-24T21:25:17.905Z,4.8
2018-08-24T21:28:17.723Z,4.6
2018-08-24T21:31:17.687Z,4.7
2018-08-24T21:34:17.610Z,5
2018-08-24T21:40:17.689Z,5.3
2018-08-24T21:43:17.796Z,4.9
2018-08-24T21:46:18.553Z,5
2018-08-24T21:49:17.580Z,4.7
2018-08-24T21:52:17.745Z,4.8
2018-08-24T21:55:17.707Z,5
2018-08-24T21:58:17.539Z,4.7
2018-08-24T22:01:17.529Z,4.6
2018-08-24T22:04:17.489Z,4.8
2018-08-24T22:10:17.772Z,4.7
2018-08-24T22:13:17.660Z,4.4
2018-08-24T22:16:17.715Z,4.5
2018-08-24T22:19:17.924Z,4.4
2018-08-24T22:22:17.946Z,4.3
2018-08-24T22:25:17.813Z,4.3
2018-08-24T22:28:17.512Z,4.3
2018-08-24T22:31:17.790Z,4.1
2018-08-24T22:34:17.612Z,4.2
2018-08-24T22:40:17.752Z,4.1
2018-08-24T22:43:17.881Z,4.2
2018-08-24T22:46:17.764Z,4.3
2018-08-24T22:49:17.797Z,4.2
2018-08-24T22:52:17.571Z,4.2
2018-08-24T22:55:17.621Z,4.1
2018-08-24T22:58:17.459Z,4
2018-08-24T23:01:17.776Z,4.4
2018-08-24T23:04:17.600Z,4
2018-08-24T23:10:17.739Z,4.1
2018-08-24T23:13:17.660Z,4
2018-08-24T23:16:17.730Z,3.9
2018-08-24T23:19:17.629Z,3.9
2018-08-24T23:22:17.811Z,3.9
2018-08-24T23:25:17.609Z,3.9
2018-08-24T23:28:17.662Z,4
2018-08-24T23:31:18.009Z,4.1
2018-08-24T23:34:17.539Z,4
2018-08-24T23:40:17.682Z,4
2018-08-24T23:43:17.476Z,4
2018-08-24T23:46:17.788Z,3.9
2018-08-24T23:49:17.582Z,3.9
2018-08-24T23:52:17.578Z,3.8
2018-08-24T23:55:17.913Z,3.9
2018-08-24T23:58:17.688Z,3.9
